MROC/SJO METAR and TAF weather

Enter ICAO airport designator
Station Type Date Time Source
MROC METAR 2021/05/13 17:00 UTC NOAA

MROC 131700Z 11009KT 9999 BKN030 26/20 A3000 NOSIG


Station Type Date Time Source
MROC Decoded METAR 2021/05/13 17:00 UTC NOAA

Juan Santamaria, Costa Rica (MROC) 10-00N 084-13W 939M
May 13, 2021 - 01:00 PM EDT / 2021.05.13 1700 UTC
Wind: from the ESE (110 degrees) at 10 MPH (9 KT):0
Visibility: greater than 7 mile(s):0
Sky conditions: mostly cloudy
Temperature: 78 F (26 C)
Dew Point: 68 F (20 C)
Relative Humidity: 69%
Pressure (altimeter): 30 in. Hg (1015 hPa)
ob: MROC 131700Z 11009KT 9999 BKN030 26/20 A3000 NOSIG
cycle: 17

Station Type Date Time Source
MROC TAF 2021/05/13 18:27 UTC NOAA

TAF MROC 131700Z 1318/1418 11010KT 9999 SCT030 TX27/1318Z TN20/1411Z
TEMPO 1320/1324 25006KT RA FEW020TCU BKN035

Example: see airport list